Time;durP1;ratioP1;P1;durP2;ratioP2;P2;SDS_P1;SDS_P2;PMS_P1;PMS_P2;Temp;Humidity;BMP_temperature;BMP_pressure;BME280_temperature;BME280_humidity;BME280_pressure;Samples;Min_cycle;Max_cycle;Signal;HPM_P1;HPM_P2
2022/12/25 00:02:19;;;;;;;8.87;4.47;;;13.70;95.50;;;;;;5021547;28;20202;-95
2022/12/25 00:04:53;;;;;;;9.80;4.97;;;13.70;95.50;;;;;;5024849;28;20208;-94
2022/12/25 00:07:28;;;;;;;7.30;4.33;;;13.70;95.50;;;;;;5025765;28;20217;-96
2022/12/25 00:10:00;;;;;;;11.50;4.93;;;13.70;95.50;;;;;;5021582;28;20202;-94
2022/12/25 00:12:34;;;;;;;9.97;4.13;;;13.70;95.50;;;;;;5027533;28;20245;-94
2022/12/25 00:15:25;;;;;;;11.37;5.87;;;13.70;95.50;;;;;;5000875;28;20203;-95
2022/12/25 00:18:06;;;;;;;11.00;5.07;;;13.70;95.50;;;;;;5018188;28;20201;-95
2022/12/25 00:21:02;;;;;;;7.77;4.00;;;13.70;95.50;;;;;;5022247;28;20211;-95
2022/12/25 00:23:59;;;;;;;14.33;5.73;;;13.70;95.60;;;;;;5027188;28;20270;-94
2022/12/25 00:26:31;;;;;;;12.87;5.10;;;13.70;95.50;;;;;;5007491;28;20644;-94
2022/12/25 00:35:13;;;;;;;11.33;4.97;;;13.70;95.50;;;;;;5006343;28;20246;-95
2022/12/25 00:37:50;;;;;;;8.87;5.27;;;13.70;95.60;;;;;;5012844;28;20231;-94
2022/12/25 00:40:28;;;;;;;10.40;5.50;;;13.70;95.50;;;;;;5025900;28;20192;-93
2022/12/25 00:43:07;;;;;;;12.53;4.90;;;13.70;95.60;;;;;;5007294;28;20237;-94
2022/12/25 00:45:38;;;;;;;9.87;5.27;;;13.70;95.60;;;;;;5024752;28;20269;-95
2022/12/25 00:48:15;;;;;;;10.20;5.00;;;13.70;95.50;;;;;;5032919;28;20201;-94
2022/12/25 00:51:03;;;;;;;10.97;4.43;;;13.70;95.50;;;;;;5033888;28;20196;-95
2022/12/25 00:53:39;;;;;;;8.13;4.40;;;13.70;95.60;;;;;;5005640;28;20676;-94
2022/12/25 00:56:14;;;;;;;6.33;4.27;;;13.70;95.50;;;;;;5013641;28;20201;-95
2022/12/25 00:58:58;;;;;;;12.73;5.67;;;13.70;95.50;;;;;;5015130;28;20215;-95
2022/12/25 01:04:36;;;;;;;8.53;4.67;;;13.70;95.60;;;;;;5015668;28;20217;-95
2022/12/25 01:13:21;;;;;;;8.70;5.13;;;13.70;95.60;;;;;;5028851;28;20778;-95
2022/12/25 01:15:55;;;;;;;10.80;5.00;;;13.70;95.70;;;;;;5012205;28;20271;-95
2022/12/25 01:18:45;;;;;;;11.60;5.63;;;13.70;95.70;;;;;;5017661;28;20258;-96
2022/12/25 01:21:24;;;;;;;9.03;4.40;;;13.70;95.70;;;;;;5030109;28;20200;-95
2022/12/25 01:27:03;;;;;;;14.23;5.10;;;13.70;95.70;;;;;;5028949;28;20213;-95
2022/12/25 01:29:40;;;;;;;10.07;4.77;;;13.70;95.60;;;;;;5017277;28;20203;-95
2022/12/25 01:32:17;;;;;;;11.83;5.23;;;13.70;95.70;;;;;;5026661;28;20242;-95
2022/12/25 01:34:52;;;;;;;8.67;4.93;;;13.60;95.50;;;;;;5031614;28;20205;-95
2022/12/25 01:37:39;;;;;;;11.00;5.27;;;13.60;95.50;;;;;;5031074;28;20222;-95
2022/12/25 01:43:36;;;;;;;9.87;5.57;;;13.60;95.40;;;;;;5029970;28;20196;-94
2022/12/25 01:49:15;;;;;;;7.87;5.70;;;13.60;95.30;;;;;;5031157;28;20214;-94
2022/12/25 01:51:49;;;;;;;12.70;6.30;;;13.60;95.30;;;;;;5032732;28;20207;-94
2022/12/25 01:54:36;;;;;;;8.90;5.27;;;13.60;95.30;;;;;;5034047;28;20212;-93
2022/12/25 02:00:26;;;;;;;10.73;6.83;;;13.50;95.30;;;;;;5019479;28;20199;-95
2022/12/25 02:03:04;;;;;;;14.83;7.63;;;13.50;95.30;;;;;;5015882;28;20209;-95
2022/12/25 02:05:46;;;;;;;11.27;6.20;;;13.50;95.20;;;;;;5020002;28;20287;-94
2022/12/25 02:08:26;;;;;;;15.33;7.40;;;13.40;95.20;;;;;;5021197;28;20272;-94
2022/12/25 02:11:01;;;;;;;18.60;8.87;;;13.40;95.40;;;;;;5024815;28;20222;-96
2022/12/25 02:13:39;;;;;;;12.67;7.23;;;13.40;95.50;;;;;;5021580;28;20523;-94
2022/12/25 02:16:14;;;;;;;15.07;8.50;;;13.40;95.50;;;;;;5021849;28;20213;-94
2022/12/25 02:19:01;;;;;;;11.60;7.07;;;13.40;95.80;;;;;;5021261;28;20203;-96
2022/12/25 02:22:06;;;;;;;18.13;8.60;;;13.40;95.50;;;;;;5001351;28;20204;-94
2022/12/25 02:25:01;;;;;;;17.20;8.13;;;13.40;95.60;;;;;;5014140;28;20207;-95
2022/12/25 02:28:03;;;;;;;11.20;7.37;;;13.40;95.50;;;;;;5021575;28;20259;-93
2022/12/25 02:30:52;;;;;;;14.67;8.53;;;13.30;95.50;;;;;;4936174;29;20206;-95
2022/12/25 02:36:47;;;;;;;12.40;7.37;;;13.30;95.40;;;;;;4936781;29;20326;-94
2022/12/25 03:06:41;;;;;;;15.73;8.30;;;13.30;95.40;;;;;;5024277;28;20210;-94
2022/12/25 03:08:44;;;;;;;16.97;9.97;;;13.20;95.60;;;;;;5019310;28;20214;-94
2022/12/25 03:11:32;;;;;;;17.57;11.27;;;13.20;95.70;;;;;;5004394;28;20204;-96
2022/12/25 03:17:05;;;;;;;13.50;10.00;;;13.20;95.70;;;;;;5006928;28;20267;-94
2022/12/25 03:28:06;;;;;;;16.97;11.23;;;13.20;95.90;;;;;;5016181;28;20214;-94
2022/12/25 03:33:37;;;;;;;17.43;10.20;;;13.20;96.00;;;;;;5012018;28;20259;-94
2022/12/25 03:36:10;;;;;;;22.37;11.37;;;13.20;96.00;;;;;;5014517;28;20236;-92
2022/12/25 04:37:16;;;;;;;10.47;6.37;;;13.30;96.00;;;;;;5028030;28;20215;-96
2022/12/25 04:40:16;;;;;;;10.83;7.23;;;13.30;96.00;;;;;;5025293;28;20264;-95
2022/12/25 04:42:56;;;;;;;9.60;6.47;;;13.30;96.10;;;;;;5020168;28;20278;-96
2022/12/25 04:52:12;;;;;;;8.37;5.73;;;13.30;96.10;;;;;;5021569;28;20198;-96
2022/12/25 04:55:33;;;;;;;6.57;5.23;;;13.30;96.10;;;;;;5022092;28;20217;-96
2022/12/25 04:58:06;;;;;;;9.73;5.33;;;13.30;96.10;;;;;;4994241;28;20223;-94
2022/12/25 05:00:51;;;;;;;9.00;5.40;;;13.40;96.00;;;;;;5012287;28;20636;-95
2022/12/25 05:04:02;;;;;;;6.87;5.27;;;13.30;96.00;;;;;;5024108;28;20591;-96
2022/12/25 05:06:39;;;;;;;10.17;5.60;;;13.40;96.10;;;;;;5022142;28;20263;-96
2022/12/25 05:09:12;;;;;;;8.67;5.07;;;13.40;96.00;;;;;;5028381;28;20203;-95
2022/12/25 05:11:51;;;;;;;8.40;5.43;;;13.40;95.90;;;;;;5024162;28;20204;-95
2022/12/25 05:14:35;;;;;;;7.40;5.40;;;13.40;95.90;;;;;;5018485;28;20229;-95
2022/12/25 05:17:04;;;;;;;12.37;6.37;;;13.40;96.00;;;;;;5025049;28;20201;-96
2022/12/25 05:22:57;;;;;;;10.97;6.10;;;13.40;95.90;;;;;;5019259;28;20203;-95
2022/12/25 05:25:45;;;;;;;6.20;5.60;;;13.40;95.80;;;;;;5021036;28;20213;-96
2022/12/25 05:28:46;;;;;;;8.07;5.57;;;13.40;95.80;;;;;;5027162;28;20206;-96
2022/12/25 05:31:18;;;;;;;10.13;5.53;;;13.40;95.70;;;;;;5019204;28;20273;-95
2022/12/25 05:34:04;;;;;;;7.53;5.03;;;13.40;95.60;;;;;;5011100;28;20240;-95
2022/12/25 05:36:48;;;;;;;10.77;5.77;;;13.40;95.60;;;;;;5008412;28;20302;-96
2022/12/25 05:39:30;;;;;;;9.27;5.30;;;13.40;95.60;;;;;;5021570;28;20208;-96
2022/12/25 05:42:18;;;;;;;7.50;4.90;;;13.40;95.60;;;;;;5013467;28;20275;-96
2022/12/25 05:45:12;;;;;;;7.23;4.57;;;13.40;95.50;;;;;;4998167;28;20242;-95
2022/12/25 05:47:43;;;;;;;11.70;6.03;;;13.30;95.60;;;;;;5013243;28;20297;-95
2022/12/25 05:50:34;;;;;;;8.03;5.50;;;13.30;95.50;;;;;;5013142;28;20193;-94
2022/12/25 05:53:18;;;;;;;8.47;5.00;;;13.30;95.50;;;;;;5016133;28;20241;-95
2022/12/25 05:56:32;;;;;;;9.60;5.03;;;13.30;95.40;;;;;;5008620;28;20210;-96
2022/12/25 05:59:12;;;;;;;5.93;4.17;;;13.30;95.40;;;;;;5020258;28;20206;-96
2022/12/25 06:01:51;;;;;;;14.43;6.63;;;13.30;95.30;;;;;;5021199;28;20206;-96
2022/12/25 06:04:28;;;;;;;5.97;4.17;;;13.30;95.30;;;;;;5017007;28;20241;-96
2022/12/25 06:12:24;;;;;;;8.20;4.67;;;13.30;95.30;;;;;;5021577;28;20212;-95
2022/12/25 06:18:13;;;;;;;6.93;4.57;;;13.30;95.30;;;;;;5006327;28;20202;-95
2022/12/25 06:20:49;;;;;;;6.23;4.07;;;13.20;95.10;;;;;;4985322;28;20223;-96
2022/12/25 06:23:35;;;;;;;7.30;4.40;;;13.20;95.20;;;;;;5014663;28;20204;-96
2022/12/25 06:26:12;;;;;;;8.40;4.77;;;13.20;95.20;;;;;;5003346;28;20207;-95
2022/12/25 06:28:55;;;;;;;10.00;5.33;;;13.20;95.30;;;;;;5029731;28;20227;-96
2022/12/25 06:34:34;;;;;;;5.03;4.00;;;13.20;95.40;;;;;;5028008;28;20237;-95
2022/12/25 06:40:18;;;;;;;9.57;4.80;;;13.10;95.40;;;;;;5025289;28;20226;-96
2022/12/25 06:43:17;;;;;;;5.23;3.80;;;13.10;95.40;;;;;;5023453;28;20203;-95
2022/12/25 06:46:19;;;;;;;11.57;5.87;;;13.10;95.40;;;;;;5003532;28;20203;-95
2022/12/25 06:49:06;;;;;;;7.00;4.77;;;13.10;95.50;;;;;;5030721;28;20183;-96
2022/12/25 06:51:41;;;;;;;10.30;5.40;;;13.10;95.50;;;;;;5007889;28;20230;-96
2022/12/25 06:54:42;;;;;;;9.67;4.97;;;13.10;95.50;;;;;;5028110;28;20289;-95
2022/12/25 06:57:19;;;;;;;11.10;5.63;;;13.10;95.60;;;;;;5018429;28;20222;-95
2022/12/25 06:59:50;;;;;;;9.13;5.27;;;13.10;95.40;;;;;;5022608;28;20237;-95
2022/12/25 07:02:24;;;;;;;8.20;5.03;;;13.00;95.40;;;;;;5018744;28;20215;-96
2022/12/25 07:04:55;;;;;;;8.70;5.33;;;13.00;95.50;;;;;;5026101;28;20224;-96
2022/12/25 07:07:25;;;;;;;10.37;5.47;;;13.00;95.50;;;;;;5011511;28;20230;-96
2022/12/25 07:09:55;;;;;;;10.17;5.67;;;13.00;95.50;;;;;;5012163;28;20219;-95
2022/12/25 07:12:28;;;;;;;9.53;5.03;;;13.00;95.50;;;;;;5032368;28;20205;-96
2022/12/25 07:15:14;;;;;;;7.77;4.10;;;13.10;95.60;;;;;;5009335;28;20277;-96
2022/12/25 07:17:50;;;;;;;5.50;4.33;;;13.00;95.50;;;;;;5019379;28;20204;-95
2022/12/25 07:20:34;;;;;;;7.37;4.90;;;13.00;95.60;;;;;;5015081;28;20647;-96
2022/12/25 07:23:06;;;;;;;9.90;5.43;;;13.00;95.50;;;;;;5019167;28;20229;-96
2022/12/25 07:25:40;;;;;;;5.17;4.57;;;13.00;95.50;;;;;;5026067;28;20557;-96
2022/12/25 07:28:10;;;;;;;8.83;5.43;;;13.00;95.50;;;;;;5018355;28;20203;-96
2022/12/25 07:31:08;;;;;;;5.47;4.40;;;13.10;95.50;;;;;;5005843;28;20201;-96
2022/12/25 07:34:31;;;;;;;8.70;5.87;;;13.00;95.50;;;;;;5019840;28;20691;-93
2022/12/25 07:37:10;;;;;;;5.63;4.37;;;13.00;95.50;;;;;;5014251;28;20233;-96
2022/12/25 07:39:38;;;;;;;11.00;5.63;;;13.00;95.50;;;;;;5009218;28;20215;-95
2022/12/25 07:42:12;;;;;;;11.13;6.30;;;13.00;95.50;;;;;;5013874;28;20652;-96
2022/12/25 07:44:49;;;;;;;10.20;5.83;;;13.00;95.60;;;;;;5012354;28;20210;-95
2022/12/25 07:47:21;;;;;;;14.00;6.50;;;13.00;95.60;;;;;;5017195;28;20206;-96
2022/12/25 07:49:52;;;;;;;9.87;6.03;;;13.00;95.60;;;;;;5017418;28;20222;-96
2022/12/25 07:55:26;;;;;;;13.73;6.43;;;13.00;95.70;;;;;;5004144;28;20306;-96
2022/12/25 07:58:07;;;;;;;11.50;7.00;;;13.00;95.70;;;;;;5008976;28;20199;-96
2022/12/25 08:00:48;;;;;;;17.03;7.67;;;13.00;95.70;;;;;;5015126;28;20200;-95
2022/12/25 08:03:21;;;;;;;15.63;7.87;;;13.00;95.70;;;;;;5009729;28;20213;-96
2022/12/25 08:05:57;;;;;;;10.40;6.10;;;13.00;95.70;;;;;;5021777;28;20731;-95
2022/12/25 08:08:31;;;;;;;11.83;6.33;;;13.00;95.80;;;;;;5021609;28;20210;-96
2022/12/25 08:11:23;;;;;;;9.10;6.23;;;13.00;95.80;;;;;;5020665;28;20217;-95
2022/12/25 08:13:52;;;;;;;10.70;5.63;;;13.10;95.90;;;;;;5022185;28;20233;-96
2022/12/25 08:16:24;;;;;;;11.07;6.60;;;13.00;95.80;;;;;;5023015;28;20207;-95
2022/12/25 08:18:57;;;;;;;11.33;6.10;;;13.00;95.90;;;;;;5025011;28;20233;-95
2022/12/25 08:21:33;;;;;;;11.80;6.87;;;13.00;96.00;;;;;;5013772;28;20202;-96
2022/12/25 08:24:05;;;;;;;11.90;6.17;;;13.00;96.00;;;;;;5012962;28;20198;-96
2022/12/25 08:26:36;;;;;;;11.07;6.43;;;13.00;96.00;;;;;;5015028;28;20218;-96
2022/12/25 08:29:04;;;;;;;9.57;6.43;;;13.00;96.10;;;;;;5018542;28;20210;-94
2022/12/25 08:31:45;;;;;;;9.10;5.90;;;13.00;96.10;;;;;;5022603;28;20214;-95
2022/12/25 08:34:18;;;;;;;10.50;5.93;;;13.00;96.20;;;;;;5023771;28;20222;-96
2022/12/25 08:36:52;;;;;;;10.77;6.67;;;13.00;96.10;;;;;;5022395;28;20202;-95
2022/12/25 08:39:23;;;;;;;11.97;6.90;;;13.00;96.10;;;;;;5019701;28;20202;-94
2022/12/25 08:41:59;;;;;;;12.10;6.67;;;13.10;96.30;;;;;;5012185;28;20212;-95
2022/12/25 08:44:34;;;;;;;10.67;6.60;;;13.10;96.70;;;;;;5009835;28;20224;-96
2022/12/25 08:47:02;;;;;;;9.60;6.10;;;13.10;96.30;;;;;;5006261;28;20212;-95
2022/12/25 08:49:33;;;;;;;11.90;7.60;;;13.10;96.30;;;;;;5008570;28;20237;-95
2022/12/25 08:52:06;;;;;;;13.57;7.43;;;13.10;96.30;;;;;;5010813;28;20221;-96
2022/12/25 08:54:38;;;;;;;15.23;8.50;;;13.10;96.30;;;;;;5015330;28;20293;-94
2022/12/25 08:57:13;;;;;;;20.57;8.93;;;13.10;96.40;;;;;;5008182;28;20282;-95
2022/12/25 08:59:42;;;;;;;12.23;7.60;;;13.10;96.40;;;;;;5015700;28;20735;-94
2022/12/25 09:02:11;;;;;;;13.40;7.30;;;13.10;96.30;;;;;;5018520;28;20228;-95
2022/12/25 09:04:40;;;;;;;11.23;7.00;;;13.20;96.40;;;;;;5017547;28;20232;-95
2022/12/25 09:07:08;;;;;;;12.33;7.27;;;13.20;96.40;;;;;;5010411;28;20689;-94
2022/12/25 09:09:42;;;;;;;11.93;7.40;;;13.20;96.40;;;;;;5004575;28;20202;-95
2022/12/25 09:12:09;;;;;;;14.30;8.23;;;13.20;96.40;;;;;;5013163;28;20306;-94
2022/12/25 09:14:45;;;;;;;11.87;7.83;;;13.20;96.40;;;;;;5015098;28;20226;-94
2022/12/25 09:17:13;;;;;;;13.80;8.03;;;13.30;96.50;;;;;;5019877;28;20203;-94
2022/12/25 09:19:42;;;;;;;11.67;7.77;;;13.30;96.40;;;;;;5013813;28;20223;-94
2022/12/25 09:22:15;;;;;;;12.47;8.07;;;13.20;96.40;;;;;;5010189;28;20199;-95
2022/12/25 09:24:44;;;;;;;13.77;7.93;;;13.20;96.50;;;;;;5014435;28;20616;-94
2022/12/25 09:27:18;;;;;;;12.50;7.70;;;13.20;96.40;;;;;;5017846;28;20285;-95
2022/12/25 09:29:52;;;;;;;17.80;9.57;;;13.30;96.60;;;;;;5016298;28;20244;-94
2022/12/25 09:32:21;;;;;;;15.37;8.93;;;13.30;96.60;;;;;;5016793;28;20240;-94
2022/12/25 09:34:55;;;;;;;12.23;8.40;;;13.30;96.50;;;;;;5017681;28;20290;-94
2022/12/25 09:37:25;;;;;;;14.93;8.40;;;13.30;96.50;;;;;;5011311;28;20199;-95
2022/12/25 09:40:05;;;;;;;15.47;8.53;;;13.30;96.50;;;;;;5019197;28;20239;-94
2022/12/25 09:42:36;;;;;;;17.30;9.50;;;13.30;96.50;;;;;;5019624;28;20557;-95
2022/12/25 09:45:12;;;;;;;15.40;10.30;;;13.30;96.60;;;;;;5013321;28;20313;-94
2022/12/25 09:47:42;;;;;;;15.47;9.80;;;13.30;96.60;;;;;;4999435;28;20211;-93
2022/12/25 09:50:16;;;;;;;14.37;9.23;;;13.30;96.60;;;;;;5012742;28;20205;-93
2022/12/25 09:52:49;;;;;;;14.47;9.10;;;13.30;96.60;;;;;;5007630;28;20284;-93
2022/12/25 09:55:24;;;;;;;15.57;9.27;;;13.30;96.60;;;;;;5009045;28;20234;-93
2022/12/25 09:57:54;;;;;;;14.33;8.40;;;13.30;96.60;;;;;;5005272;28;20205;-95
2022/12/25 10:00:38;;;;;;;15.30;8.73;;;13.30;96.60;;;;;;5019186;28;20199;-95
2022/12/25 10:03:32;;;;;;;15.80;8.60;;;13.30;96.60;;;;;;5014492;28;20571;-95
2022/12/25 10:06:13;;;;;;;13.73;8.70;;;13.30;96.70;;;;;;4995621;28;20226;-94
2022/12/25 10:09:22;;;;;;;13.13;8.67;;;13.30;96.70;;;;;;5019406;28;20210;-94
2022/12/25 10:12:05;;;;;;;14.37;8.77;;;13.30;96.80;;;;;;5011084;28;20208;-94
2022/12/25 10:14:44;;;;;;;13.40;8.40;;;13.30;96.70;;;;;;5003915;28;20228;-95
2022/12/25 10:17:26;;;;;;;13.67;8.80;;;13.40;96.80;;;;;;5014965;28;20210;-94
2022/12/25 10:20:04;;;;;;;13.13;8.50;;;13.30;96.80;;;;;;5004971;28;20235;-94
2022/12/25 10:22:40;;;;;;;13.60;7.97;;;13.40;96.80;;;;;;5011735;28;20211;-95
2022/12/25 10:25:17;;;;;;;12.10;7.67;;;13.30;96.80;;;;;;5011558;28;20202;-94
2022/12/25 10:27:54;;;;;;;13.10;8.37;;;13.30;96.80;;;;;;5017604;28;20225;-95
2022/12/25 10:30:27;;;;;;;14.67;8.77;;;13.40;96.80;;;;;;5020963;28;20195;-94
2022/12/25 10:33:02;;;;;;;13.43;8.23;;;13.40;96.80;;;;;;5018326;28;20979;-94
2022/12/25 10:35:35;;;;;;;14.27;8.63;;;13.40;96.90;;;;;;5021735;28;20220;-93
2022/12/25 10:38:11;;;;;;;13.60;7.80;;;13.40;96.90;;;;;;5009447;28;20203;-93
2022/12/25 10:41:01;;;;;;;12.27;8.43;;;13.40;97.00;;;;;;5011926;28;20201;-94
2022/12/25 10:43:39;;;;;;;17.03;9.77;;;13.40;97.00;;;;;;5010564;28;20200;-95
2022/12/25 10:46:11;;;;;;;10.73;7.87;;;13.40;97.00;;;;;;5025938;28;20230;-93
2022/12/25 10:49:12;;;;;;;9.03;7.20;;;13.40;97.00;;;;;;5017830;28;20648;-94
2022/12/25 10:51:51;;;;;;;11.73;8.53;;;13.40;97.10;;;;;;5023155;28;20254;-95
2022/12/25 10:54:22;;;;;;;13.20;8.43;;;13.40;97.00;;;;;;5014481;28;20251;-94
2022/12/25 10:56:55;;;;;;;15.10;8.60;;;13.40;97.00;;;;;;5026538;28;20235;-94
2022/12/25 10:59:23;;;;;;;14.10;8.23;;;13.50;97.20;;;;;;5020453;28;20202;-94
2022/12/25 11:04:39;;;;;;;16.03;8.90;;;13.50;97.20;;;;;;5021922;28;20726;-94
2022/12/25 11:07:15;;;;;;;10.63;7.17;;;13.50;97.20;;;;;;5009415;28;20219;-94
2022/12/25 11:09:50;;;;;;;14.73;9.20;;;13.50;97.30;;;;;;5022790;28;20208;-93
2022/12/25 11:12:22;;;;;;;13.33;8.20;;;13.50;97.30;;;;;;5021453;28;20186;-94
2022/12/25 11:14:56;;;;;;;12.97;8.23;;;13.50;97.20;;;;;;5014269;28;20287;-93
2022/12/25 11:17:26;;;;;;;13.63;7.57;;;13.60;97.30;;;;;;5025517;28;20230;-93
2022/12/25 11:19:56;;;;;;;12.03;8.03;;;13.50;97.20;;;;;;5022919;28;20202;-93
2022/12/25 11:22:25;;;;;;;15.93;9.27;;;13.60;97.30;;;;;;5029797;28;20222;-94
2022/12/25 11:24:56;;;;;;;18.90;9.87;;;13.60;97.30;;;;;;5025422;28;20204;-93
2022/12/25 11:27:26;;;;;;;10.87;7.20;;;13.60;97.40;;;;;;5018697;28;20948;-94
2022/12/25 11:29:57;;;;;;;16.07;9.23;;;13.60;97.40;;;;;;5014765;28;20330;-92
2022/12/25 11:32:30;;;;;;;12.90;9.07;;;13.70;97.50;;;;;;5013548;28;20208;-93
2022/12/25 11:35:10;;;;;;;13.83;8.33;;;13.70;97.50;;;;;;5024191;28;20297;-94
2022/12/25 11:37:55;;;;;;;12.83;7.70;;;13.70;97.50;;;;;;5017654;28;20211;-94
2022/12/25 11:40:31;;;;;;;15.20;9.07;;;13.70;97.60;;;;;;5011443;28;20234;-94
2022/12/25 11:43:14;;;;;;;15.43;8.87;;;13.70;97.50;;;;;;5009566;28;20215;-93
2022/12/25 11:45:46;;;;;;;14.00;8.83;;;13.80;97.60;;;;;;5020731;28;20658;-94
2022/12/25 11:48:19;;;;;;;14.23;8.97;;;13.80;97.60;;;;;;5007896;28;20280;-93
2022/12/25 11:50:59;;;;;;;15.70;8.77;;;13.80;97.60;;;;;;5010314;28;20200;-93
2022/12/25 11:53:45;;;;;;;19.40;9.20;;;13.80;97.60;;;;;;5011191;28;20271;-94
2022/12/25 11:56:20;;;;;;;10.70;8.00;;;13.90;97.70;;;;;;5019106;28;20235;-94
2022/12/25 11:59:14;;;;;;;13.97;8.17;;;13.90;97.50;;;;;;5017163;28;20706;-93
2022/12/25 12:01:49;;;;;;;14.57;8.77;;;13.90;97.50;;;;;;5013084;28;20205;-94
2022/12/25 12:04:31;;;;;;;12.87;8.13;;;13.90;97.40;;;;;;5001412;28;20216;-93
2022/12/25 12:07:04;;;;;;;11.23;7.83;;;14.00;97.30;;;;;;5014824;28;20208;-93
2022/12/25 12:09:42;;;;;;;10.83;8.13;;;13.90;97.20;;;;;;5017395;28;20203;-93
2022/12/25 12:12:14;;;;;;;12.87;8.47;;;13.90;97.20;;;;;;5020195;28;20755;-93
2022/12/25 12:14:54;;;;;;;13.27;8.90;;;13.90;97.20;;;;;;4993456;28;20237;-92
2022/12/25 12:17:55;;;;;;;13.47;8.27;;;13.90;97.30;;;;;;5007731;28;20207;-93
2022/12/25 12:20:56;;;;;;;16.57;9.53;;;14.00;97.40;;;;;;5002945;28;20264;-92
2022/12/25 12:23:33;;;;;;;10.53;7.67;;;13.90;97.40;;;;;;4987457;28;20198;-92
2022/12/25 12:26:08;;;;;;;14.37;8.37;;;14.00;97.40;;;;;;5018259;28;20205;-93
2022/12/25 12:28:44;;;;;;;12.83;7.87;;;14.00;97.40;;;;;;5009744;28;20205;-92
2022/12/25 12:31:17;;;;;;;12.33;7.97;;;14.00;97.40;;;;;;4997962;28;20319;-93
2022/12/25 12:33:53;;;;;;;14.77;9.03;;;14.00;97.30;;;;;;5000123;28;20201;-94
2022/12/25 12:36:25;;;;;;;16.77;9.30;;;14.00;97.30;;;;;;5012770;28;20215;-94
2022/12/25 12:38:56;;;;;;;16.10;8.73;;;14.00;97.20;;;;;;4999458;28;20270;-92
2022/12/25 12:41:48;;;;;;;12.57;8.43;;;14.00;97.20;;;;;;5019858;28;20236;-94
2022/12/25 12:44:22;;;;;;;14.73;9.10;;;14.00;97.20;;;;;;4997599;28;20220;-94
2022/12/25 12:46:57;;;;;;;14.33;9.37;;;14.00;97.20;;;;;;5003863;28;20296;-94
2022/12/25 12:49:28;;;;;;;11.87;8.23;;;14.00;97.20;;;;;;5009862;28;20691;-94
2022/12/25 12:52:24;;;;;;;11.93;8.23;;;14.00;97.10;;;;;;5007321;28;20231;-95
2022/12/25 12:55:01;;;;;;;12.57;8.80;;;14.00;97.20;;;;;;4996694;28;20231;-94
2022/12/25 12:57:38;;;;;;;10.57;8.10;;;14.10;97.30;;;;;;5017158;28;20195;-95
2022/12/25 13:01:11;;;;;;;17.43;9.23;;;14.00;97.20;;;;;;5013575;28;20201;-94
2022/12/25 13:04:18;;;;;;;14.27;9.57;;;14.00;97.20;;;;;;4933151;29;20219;-94
2022/12/25 13:07:11;;;;;;;17.57;10.20;;;14.00;97.20;;;;;;4940551;29;20314;-94
2022/12/25 13:10:05;;;;;;;13.73;9.57;;;14.10;97.20;;;;;;5019452;28;20212;-94
2022/12/25 13:15:29;;;;;;;12.80;10.07;;;14.10;97.10;;;;;;5018444;28;20227;-96
2022/12/25 13:21:51;;;;;;;11.27;9.23;;;14.00;97.20;;;;;;4964060;28;20188;-95
2022/12/25 13:24:32;;;;;;;13.90;9.50;;;14.00;97.10;;;;;;5015984;28;20204;-94
2022/12/25 13:27:22;;;;;;;11.00;7.73;;;14.00;97.10;;;;;;5012711;28;20192;-95
2022/12/25 13:29:52;;;;;;;14.97;9.30;;;14.10;97.20;;;;;;5018252;28;20209;-95
2022/12/25 13:32:25;;;;;;;10.77;8.20;;;14.10;97.20;;;;;;5020646;28;20224;-95
2022/12/25 13:35:14;;;;;;;12.97;9.07;;;14.10;97.20;;;;;;5014526;28;20331;-95
2022/12/25 13:38:02;;;;;;;12.00;8.27;;;14.10;97.20;;;;;;5005654;28;20205;-95
2022/12/25 13:40:36;;;;;;;12.27;8.53;;;14.10;97.20;;;;;;4996271;28;20202;-95
2022/12/25 13:43:40;;;;;;;8.13;7.20;;;14.10;97.20;;;;;;5020014;28;20612;-95
2022/12/25 13:46:08;;;;;;;11.60;7.63;;;14.10;97.30;;;;;;5006060;28;20239;-95
2022/12/25 13:49:10;;;;;;;11.23;8.53;;;14.10;97.10;;;;;;5020935;28;20200;-94
2022/12/25 13:51:42;;;;;;;13.30;8.87;;;14.10;97.20;;;;;;5018082;28;20266;-93
2022/12/25 13:54:28;;;;;;;11.43;8.23;;;14.10;97.10;;;;;;5018279;28;20703;-94
2022/12/25 13:56:56;;;;;;;11.80;8.87;;;14.10;97.20;;;;;;5022488;28;20229;-94
2022/12/25 13:59:28;;;;;;;11.27;7.93;;;14.10;97.10;;;;;;5018781;28;20200;-95
2022/12/25 14:01:58;;;;;;;12.77;8.43;;;14.10;97.10;;;;;;4998462;28;20242;-94
2022/12/25 14:04:44;;;;;;;10.83;8.33;;;14.10;97.10;;;;;;5011633;28;20261;-95
2022/12/25 14:07:27;;;;;;;10.33;8.03;;;14.10;97.10;;;;;;5006842;28;20206;-94
2022/12/25 14:10:04;;;;;;;11.53;7.87;;;14.20;97.20;;;;;;5019290;28;20654;-95
2022/12/25 14:12:34;;;;;;;9.57;7.03;;;14.10;97.10;;;;;;5020304;28;20202;-95
2022/12/25 14:15:16;;;;;;;13.73;8.60;;;14.10;97.20;;;;;;5012732;28;20211;-95
2022/12/25 14:17:47;;;;;;;7.87;7.07;;;14.10;97.20;;;;;;5011335;28;20214;-95
2022/12/25 14:20:31;;;;;;;14.17;9.47;;;14.10;97.20;;;;;;5012339;28;20333;-94
2022/12/25 14:23:20;;;;;;;8.73;7.50;;;14.20;97.30;;;;;;5002013;28;20563;-96
2022/12/25 14:26:14;;;;;;;12.03;8.20;;;14.20;97.20;;;;;;5002147;28;20220;-94
2022/12/25 14:28:44;;;;;;;11.30;8.27;;;14.20;97.20;;;;;;5002192;28;20261;-95
2022/12/25 14:31:16;;;;;;;10.50;8.57;;;14.20;97.20;;;;;;5009994;28;20205;-94
2022/12/25 14:33:50;;;;;;;12.00;8.33;;;14.20;97.20;;;;;;5009736;28;20259;-95
2022/12/25 14:36:25;;;;;;;10.87;8.70;;;14.20;97.10;;;;;;5014594;28;20317;-93
2022/12/25 14:39:00;;;;;;;9.47;7.20;;;14.20;97.10;;;;;;5001197;28;20218;-94
2022/12/25 14:41:40;;;;;;;12.00;8.10;;;14.20;97.10;;;;;;5007989;28;20205;-95
2022/12/25 14:44:37;;;;;;;10.20;8.27;;;14.20;97.20;;;;;;5019310;28;20254;-94
2022/12/25 14:47:15;;;;;;;14.60;9.63;;;14.20;97.20;;;;;;4998097;28;20587;-95
2022/12/25 14:49:44;;;;;;;11.07;8.67;;;14.20;97.10;;;;;;4999066;28;20312;-95
2022/12/25 14:52:28;;;;;;;16.17;9.50;;;14.30;97.00;;;;;;5008088;28;20557;-94
2022/12/25 14:55:18;;;;;;;15.83;10.10;;;14.30;97.00;;;;;;5002253;28;20208;-96
2022/12/25 14:57:52;;;;;;;12.30;8.60;;;14.30;97.00;;;;;;5014567;28;20218;-95
2022/12/25 15:00:30;;;;;;;14.30;9.57;;;14.20;96.90;;;;;;5002070;28;20200;-96
2022/12/25 15:03:20;;;;;;;18.70;10.77;;;14.30;96.90;;;;;;5011994;28;20747;-95
2022/12/25 15:06:08;;;;;;;9.63;8.23;;;14.30;97.00;;;;;;5015839;28;20216;-94
2022/12/25 15:08:41;;;;;;;15.60;9.70;;;14.20;97.00;;;;;;5014003;28;20288;-96
2022/12/25 15:11:10;;;;;;;21.03;11.57;;;14.30;97.00;;;;;;5002079;28;20271;-95
2022/12/25 15:13:40;;;;;;;11.67;8.80;;;14.30;97.00;;;;;;5009974;28;20740;-94
2022/12/25 15:19:03;;;;;;;17.73;11.70;;;14.30;96.90;;;;;;5009379;28;20236;-93
2022/12/25 15:21:39;;;;;;;18.10;11.93;;;14.30;96.90;;;;;;5010881;28;20209;-93
2022/12/25 15:24:17;;;;;;;16.10;10.37;;;14.30;97.00;;;;;;5010072;28;20193;-95
2022/12/25 15:26:58;;;;;;;15.67;9.87;;;14.30;97.00;;;;;;5013512;28;20255;-94
2022/12/25 15:29:35;;;;;;;12.03;9.43;;;14.30;96.90;;;;;;5009319;28;20288;-95
2022/12/25 15:32:06;;;;;;;11.80;8.87;;;14.30;96.90;;;;;;5010654;28;20209;-94
2022/12/25 15:34:37;;;;;;;13.73;10.00;;;14.30;96.80;;;;;;5012017;28;20217;-94
2022/12/25 15:37:04;;;;;;;12.70;9.50;;;14.30;96.80;;;;;;4995093;28;20234;-95
2022/12/25 15:39:34;;;;;;;14.00;9.90;;;14.30;96.80;;;;;;5000509;28;20263;-95
2022/12/25 15:42:45;;;;;;;13.80;9.43;;;14.30;96.80;;;;;;5012392;28;20219;-95
2022/12/25 15:45:23;;;;;;;13.87;9.90;;;14.30;96.80;;;;;;5004086;28;20209;-94
2022/12/25 15:47:53;;;;;;;13.60;10.03;;;14.30;96.80;;;;;;5015352;28;20271;-94
2022/12/25 15:50:25;;;;;;;11.87;9.33;;;14.30;96.60;;;;;;5015027;28;20231;-95
2022/12/25 15:52:54;;;;;;;13.43;10.17;;;14.30;96.70;;;;;;5001178;28;20653;-96
2022/12/25 15:55:21;;;;;;;13.87;10.23;;;14.20;96.60;;;;;;5011508;28;20296;-96
2022/12/25 15:57:53;;;;;;;13.00;9.50;;;14.20;96.70;;;;;;4995557;28;20611;-96
2022/12/25 16:00:24;;;;;;;15.17;9.00;;;14.20;96.70;;;;;;4996205;28;20256;-96
2022/12/25 16:03:00;;;;;;;13.97;10.03;;;14.20;96.60;;;;;;4979521;28;20209;-95
2022/12/25 16:05:56;;;;;;;15.23;10.60;;;14.20;96.60;;;;;;4988937;28;20371;-95
2022/12/25 16:08:28;;;;;;;17.60;11.73;;;14.20;96.60;;;;;;5017413;28;20204;-95
2022/12/25 16:11:02;;;;;;;14.93;10.77;;;14.20;96.50;;;;;;5012856;28;20653;-95
2022/12/25 16:13:33;;;;;;;13.77;10.00;;;14.20;96.60;;;;;;5015202;28;20209;-96
2022/12/25 16:16:08;;;;;;;14.23;10.90;;;14.20;96.60;;;;;;5013158;28;20238;-94
2022/12/25 16:18:40;;;;;;;14.17;9.73;;;14.20;96.50;;;;;;5003458;28;20618;-96
2022/12/25 16:21:14;;;;;;;16.63;11.10;;;14.20;96.50;;;;;;5018728;28;20260;-94
2022/12/25 16:23:46;;;;;;;12.53;10.13;;;14.20;96.60;;;;;;5018855;28;20221;-95
2022/12/25 16:26:35;;;;;;;12.23;10.13;;;14.10;96.50;;;;;;5019140;28;20239;-93
2022/12/25 16:29:10;;;;;;;12.87;10.37;;;14.20;96.50;;;;;;5014817;28;20213;-96